createdAt,value
2022-09-22T00:00:05.449Z,99.90
2022-09-22T00:02:37.398Z,99.90
2022-09-22T00:05:09.852Z,99.90
2022-09-22T00:07:41.520Z,99.90
2022-09-22T00:10:14.062Z,99.90
2022-09-22T00:12:47.641Z,99.90
2022-09-22T00:15:19.343Z,99.90
2022-09-22T00:17:51.895Z,99.90
2022-09-22T00:20:23.554Z,99.90
2022-09-22T00:22:55.999Z,99.90
2022-09-22T00:25:27.622Z,99.90
2022-09-22T00:28:00.131Z,99.90
2022-09-22T00:30:31.785Z,99.90
2022-09-22T00:33:04.267Z,99.90
2022-09-22T00:35:39.315Z,99.90
2022-09-22T00:38:11.386Z,99.90
2022-09-22T00:40:43.069Z,99.90
2022-09-22T00:43:23.027Z,99.90
2022-09-22T00:45:58.064Z,99.90
2022-09-22T00:48:32.993Z,99.90
2022-09-22T00:51:08.363Z,99.90
2022-09-22T00:53:40.130Z,99.90
2022-09-22T00:56:18.537Z,99.90
2022-09-22T00:58:55.852Z,99.90
2022-09-22T01:01:29.958Z,99.90
2022-09-22T01:04:01.769Z,99.90
2022-09-22T01:06:35.001Z,99.90
2022-09-22T01:09:07.582Z,99.90
2022-09-22T01:11:40.667Z,99.90
2022-09-22T01:14:15.580Z,99.90
2022-09-22T01:16:48.016Z,99.90
2022-09-22T01:19:37.924Z,99.90
2022-09-22T01:22:26.197Z,99.90
2022-09-22T01:25:17.084Z,99.90
2022-09-22T01:27:58.541Z,99.90
2022-09-22T01:30:36.347Z,99.90
2022-09-22T01:33:27.684Z,99.90
2022-09-22T01:36:05.400Z,99.90
2022-09-22T01:38:44.810Z,99.90
2022-09-22T01:41:19.528Z,99.90
2022-09-22T01:43:55.706Z,99.90
2022-09-22T01:46:32.957Z,99.90
2022-09-22T01:49:08.506Z,99.90
2022-09-22T01:51:45.325Z,99.90
2022-09-22T01:54:24.433Z,99.90
2022-09-22T01:57:26.680Z,99.90
2022-09-22T02:00:04.874Z,99.90
2022-09-22T02:02:51.287Z,99.90
2022-09-22T02:05:29.895Z,99.90
2022-09-22T02:08:04.269Z,99.90
2022-09-22T02:10:38.837Z,99.90
2022-09-22T02:13:10.515Z,99.90
2022-09-22T02:16:01.489Z,99.90
2022-09-22T02:18:53.817Z,99.90
2022-09-22T02:21:28.229Z,99.90
2022-09-22T02:24:00.578Z,99.90
2022-09-22T02:26:35.635Z,99.90
2022-09-22T02:29:08.837Z,99.90
2022-09-22T02:31:41.400Z,99.90
2022-09-22T02:34:13.698Z,99.90
2022-09-22T02:36:51.515Z,99.90
2022-09-22T02:39:36.966Z,99.90
2022-09-22T02:42:11.622Z,99.90
2022-09-22T02:45:05.108Z,99.90
2022-09-22T02:47:52.265Z,99.90
2022-09-22T02:50:25.955Z,99.90
2022-09-22T02:53:01.409Z,99.90
2022-09-22T02:55:33.086Z,99.90
2022-09-22T02:58:05.596Z,99.90
2022-09-22T03:00:37.408Z,99.90
2022-09-22T03:03:11.903Z,99.90
2022-09-22T03:05:43.604Z,99.90
2022-09-22T03:08:16.539Z,99.90
2022-09-22T03:10:48.221Z,99.90
2022-09-22T03:13:20.620Z,99.90
2022-09-22T03:15:52.399Z,99.90
2022-09-22T03:18:24.915Z,99.90
2022-09-22T03:20:56.563Z,99.90
2022-09-22T03:23:29.310Z,99.90
2022-09-22T03:26:00.980Z,99.90
2022-09-22T03:28:33.447Z,99.90
2022-09-22T03:31:05.624Z,99.90
2022-09-22T03:33:38.120Z,99.90
2022-09-22T03:36:09.854Z,99.90
2022-09-22T03:38:42.488Z,99.90
2022-09-22T03:41:14.260Z,99.90
2022-09-22T03:43:46.728Z,99.90
2022-09-22T03:46:19.858Z,99.90
2022-09-22T03:48:52.067Z,99.90
2022-09-22T03:51:23.773Z,99.90
2022-09-22T03:53:56.280Z,99.90
2022-09-22T03:56:27.975Z,99.90
2022-09-22T03:59:00.582Z,99.90
2022-09-22T04:01:33.002Z,99.90
2022-09-22T04:04:04.933Z,99.90
2022-09-22T04:06:37.897Z,99.90
2022-09-22T04:09:09.753Z,99.90
2022-09-22T04:11:44.311Z,99.90
2022-09-22T04:14:16.359Z,99.90
2022-09-22T04:16:48.954Z,99.90
2022-09-22T04:19:20.652Z,99.90
2022-09-22T04:21:57.021Z,99.90
2022-09-22T04:24:29.509Z,99.90
2022-09-22T04:27:20.852Z,99.90
2022-09-22T04:29:53.703Z,99.90
2022-09-22T04:32:25.319Z,99.90
2022-09-22T04:34:58.084Z,99.90
2022-09-22T04:37:29.769Z,99.90
2022-09-22T04:40:02.484Z,99.90
2022-09-22T04:42:34.157Z,99.90
2022-09-22T04:45:07.399Z,99.90
2022-09-22T04:47:39.055Z,99.90
2022-09-22T04:50:11.788Z,99.90
2022-09-22T04:52:47.535Z,99.90
2022-09-22T04:55:19.566Z,99.90
2022-09-22T04:57:53.075Z,99.90
2022-09-22T05:00:28.016Z,99.90
2022-09-22T05:03:07.303Z,99.90
2022-09-22T05:05:39.818Z,99.90
2022-09-22T05:08:11.464Z,99.90
2022-09-22T05:10:44.440Z,99.90
2022-09-22T05:13:16.079Z,99.90
2022-09-22T05:15:48.529Z,99.90
2022-09-22T05:18:21.252Z,99.90
2022-09-22T05:20:53.811Z,99.90
2022-09-22T05:23:25.900Z,99.90
2022-09-22T05:25:58.082Z,99.90
2022-09-22T05:28:30.798Z,99.90
2022-09-22T05:31:02.507Z,99.90
2022-09-22T05:33:35.142Z,99.90
2022-09-22T05:36:07.248Z,99.90
2022-09-22T05:38:38.880Z,99.90
2022-09-22T05:41:11.640Z,99.90
2022-09-22T05:43:43.300Z,99.90
2022-09-22T05:46:15.900Z,99.90
2022-09-22T05:48:47.775Z,99.90
2022-09-22T05:51:20.423Z,99.90
2022-09-22T05:53:52.383Z,99.90
2022-09-22T05:56:24.884Z,99.90
2022-09-22T05:58:56.606Z,99.90
2022-09-22T06:04:21.357Z,99.90
2022-09-22T06:06:52.974Z,99.90
2022-09-22T06:09:25.472Z,99.90
2022-09-22T06:11:57.544Z,99.90
2022-09-22T06:14:29.719Z,99.90
2022-09-22T06:17:02.158Z,99.90
2022-09-22T06:19:34.732Z,99.90
2022-09-22T06:22:08.280Z,99.90
2022-09-22T06:24:40.022Z,99.90
2022-09-22T06:27:12.700Z,99.90
2022-09-22T06:29:44.365Z,99.90
2022-09-22T06:32:16.826Z,99.90
2022-09-22T06:34:48.441Z,99.90
2022-09-22T06:37:21.221Z,99.90
2022-09-22T06:39:53.306Z,99.90
2022-09-22T06:42:25.399Z,99.90
2022-09-22T06:44:57.645Z,99.90
2022-09-22T06:47:32.036Z,99.90
2022-09-22T06:50:05.904Z,99.90
2022-09-22T06:52:38.573Z,99.90
2022-09-22T06:55:10.685Z,99.90
2022-09-22T06:57:42.711Z,99.90
2022-09-22T07:00:15.181Z,99.90
2022-09-22T07:02:47.734Z,99.90
2022-09-22T07:05:21.128Z,99.90
2022-09-22T07:07:53.609Z,99.90
2022-09-22T07:10:25.367Z,99.90
2022-09-22T07:13:00.757Z,99.90
2022-09-22T07:15:34.816Z,99.90
2022-09-22T07:18:07.852Z,99.90
2022-09-22T07:20:48.553Z,99.90
2022-09-22T07:23:21.522Z,99.90
2022-09-22T07:25:57.049Z,99.90
2022-09-22T07:28:30.174Z,99.90
2022-09-22T08:07:16.256Z,99.90
2022-09-22T08:15:12.991Z,99.90
2022-09-22T08:17:46.012Z,97.20
2022-09-22T08:20:19.161Z,96.90
2022-09-22T08:22:58.012Z,97.20
2022-09-22T08:25:31.106Z,97.60
2022-09-22T08:28:03.136Z,98.40
2022-09-22T08:30:36.772Z,98.60
2022-09-22T08:33:08.689Z,98.90
2022-09-22T08:36:03.938Z,98.30
2022-09-22T08:38:36.218Z,98.20
2022-09-22T08:41:13.314Z,98.40
2022-09-22T08:44:02.054Z,98.00
2022-09-22T08:46:41.194Z,98.30
2022-09-22T08:49:44.201Z,99.40
2022-09-22T08:55:23.045Z,98.30
2022-09-22T08:58:29.200Z,97.80
2022-09-22T09:01:29.462Z,96.60
2022-09-22T09:04:16.556Z,95.10
2022-09-22T09:07:12.794Z,95.70
2022-09-22T09:10:16.300Z,96.00
2022-09-22T09:13:00.739Z,96.70
2022-09-22T09:16:06.659Z,96.50
2022-09-22T09:18:45.524Z,96.80
2022-09-22T09:21:18.280Z,96.90
2022-09-22T09:29:27.156Z,96.70
2022-09-22T09:32:04.757Z,96.60
2022-09-22T09:34:36.858Z,96.70
2022-09-22T09:37:15.729Z,96.20
2022-09-22T09:40:18.356Z,96.80
2022-09-22T09:43:05.139Z,96.30
2022-09-22T09:46:27.187Z,96.20
2022-09-22T09:49:06.061Z,95.90
2022-09-22T09:51:43.647Z,96.20
2022-09-22T09:54:18.882Z,96.70
2022-09-22T09:57:30.409Z,97.20
2022-09-22T10:00:32.667Z,97.60
2022-09-22T10:03:15.966Z,97.40
2022-09-22T10:06:14.091Z,96.60
2022-09-22T10:08:51.517Z,96.90
2022-09-22T10:11:32.991Z,96.60
2022-09-22T10:14:17.417Z,96.70
2022-09-22T10:16:52.915Z,96.80
2022-09-22T10:19:34.495Z,96.90
2022-09-22T10:22:26.596Z,96.30
2022-09-22T10:25:01.265Z,96.70
2022-09-22T10:30:13.805Z,98.00
2022-09-22T10:33:13.337Z,96.70
2022-09-22T10:36:11.230Z,96.50
2022-09-22T10:38:45.478Z,96.80
2022-09-22T10:41:26.079Z,96.20
2022-09-22T10:44:37.523Z,96.30
2022-09-22T10:47:27.308Z,96.60
2022-09-22T10:50:28.162Z,96.90
2022-09-22T10:53:43.321Z,96.60
2022-09-22T10:56:34.637Z,96.30
2022-09-22T11:00:03.820Z,95.80
2022-09-22T11:03:31.592Z,96.30
2022-09-22T11:06:41.053Z,96.90
2022-09-22T11:12:54.439Z,96.60
2022-09-22T11:15:41.030Z,96.20
2022-09-22T11:18:19.339Z,96.40
2022-09-22T11:21:27.663Z,96.00
2022-09-22T11:24:24.896Z,95.80
2022-09-22T11:27:01.697Z,96.00
2022-09-22T11:30:23.444Z,95.90
2022-09-22T11:33:51.977Z,95.80
2022-09-22T11:37:27.274Z,95.90
2022-09-22T11:40:44.559Z,95.90
2022-09-22T11:44:09.377Z,95.50
2022-09-22T11:47:01.090Z,95.70
2022-09-22T11:49:51.285Z,95.70
2022-09-22T11:53:14.516Z,95.50
2022-09-22T11:56:14.243Z,95.00
2022-09-22T11:58:49.122Z,95.20
2022-09-22T12:01:29.899Z,95.40
2022-09-22T12:04:26.265Z,95.00
2022-09-22T12:07:00.485Z,95.60
2022-09-22T12:09:46.843Z,95.40
2022-09-22T12:12:22.488Z,95.50
2022-09-22T12:15:23.701Z,95.60
2022-09-22T12:18:11.305Z,95.20
2022-09-22T12:20:55.233Z,95.40
2022-09-22T12:23:37.090Z,95.30
2022-09-22T12:26:15.165Z,94.50
2022-09-22T12:28:47.958Z,94.30
2022-09-22T12:31:21.345Z,94.00
2022-09-22T12:33:56.501Z,93.70
2022-09-22T12:36:30.692Z,94.00
2022-09-22T12:39:11.291Z,94.10
2022-09-22T12:42:08.868Z,94.30
2022-09-22T12:45:10.304Z,93.80
2022-09-22T12:47:49.412Z,94.20
2022-09-22T12:53:28.107Z,94.30
2022-09-22T12:56:40.668Z,93.70
2022-09-22T12:59:40.329Z,94.30
2022-09-22T13:02:19.002Z,94.00
2022-09-22T13:04:53.867Z,94.30
2022-09-22T13:07:44.096Z,94.30
2022-09-22T13:10:24.866Z,94.20
2022-09-22T13:13:02.628Z,94.50
2022-09-22T13:15:47.651Z,94.30
2022-09-22T13:18:37.131Z,94.60
2022-09-22T13:21:12.002Z,94.40
2022-09-22T13:23:58.232Z,94.40
2022-09-22T13:26:41.482Z,94.40
2022-09-22T13:29:21.596Z,94.30
2022-09-22T13:31:57.456Z,93.70
2022-09-22T13:34:35.716Z,94.30
2022-09-22T13:37:24.058Z,94.40
2022-09-22T13:39:57.479Z,94.10
2022-09-22T13:42:34.507Z,93.80
2022-09-22T13:45:20.244Z,94.20
2022-09-22T13:48:03.649Z,94.30
2022-09-22T13:50:54.091Z,94.20
2022-09-22T13:53:27.278Z,94.10
2022-09-22T13:56:00.013Z,94.20
2022-09-22T13:58:39.978Z,94.10
2022-09-22T14:01:22.755Z,95.80
2022-09-22T14:03:55.848Z,94.90
2022-09-22T14:06:32.988Z,94.30
2022-09-22T14:09:05.301Z,94.50
2022-09-22T14:11:37.644Z,93.70
2022-09-22T14:14:24.413Z,94.60
2022-09-22T14:17:24.340Z,94.10
2022-09-22T14:20:04.955Z,94.00
2022-09-22T14:22:42.399Z,94.10
2022-09-22T14:25:19.171Z,94.50
2022-09-22T14:27:58.355Z,94.50
2022-09-22T14:30:42.269Z,94.20
2022-09-22T14:33:25.538Z,93.90
2022-09-22T14:36:05.028Z,94.20
2022-09-22T14:38:44.372Z,94.50
2022-09-22T14:41:35.711Z,94.00
2022-09-22T14:44:48.238Z,94.70
2022-09-22T14:47:28.703Z,95.10
2022-09-22T14:50:19.982Z,94.40
2022-09-22T14:53:02.575Z,94.60
2022-09-22T14:55:46.322Z,94.50
2022-09-22T14:58:25.165Z,94.30
2022-09-22T15:01:21.520Z,94.70
2022-09-22T15:04:03.328Z,94.70
2022-09-22T15:06:42.781Z,94.60
2022-09-22T15:09:29.692Z,94.60
2022-09-22T15:12:03.578Z,94.60
2022-09-22T15:17:55.011Z,94.50
2022-09-22T15:20:36.895Z,94.60
2022-09-22T15:23:16.778Z,94.20
2022-09-22T15:25:50.636Z,94.40
2022-09-22T15:28:25.715Z,94.70
2022-09-22T15:30:58.267Z,94.30
2022-09-22T15:33:31.018Z,94.60
2022-09-22T15:36:12.715Z,94.80
2022-09-22T15:38:45.256Z,94.80
2022-09-22T15:41:17.187Z,95.00
2022-09-22T15:43:49.722Z,95.10
2022-09-22T15:46:35.422Z,95.20
2022-09-22T15:49:22.347Z,95.40
2022-09-22T15:51:56.503Z,95.50
2022-09-22T15:54:29.884Z,95.40
2022-09-22T15:57:05.263Z,95.40
2022-09-22T15:59:38.758Z,95.50
2022-09-22T16:02:11.809Z,95.80
2022-09-22T16:04:44.658Z,95.60
2022-09-22T16:07:22.170Z,95.70
2022-09-22T16:12:27.656Z,95.80
2022-09-22T16:15:02.138Z,96.10
2022-09-22T16:17:35.619Z,96.00
2022-09-22T16:22:41.132Z,96.00
2022-09-22T16:25:15.323Z,96.20
2022-09-22T16:27:47.861Z,96.10
2022-09-22T16:30:22.940Z,96.20
2022-09-22T16:32:57.756Z,96.30
2022-09-22T16:35:29.700Z,96.40
2022-09-22T16:38:02.692Z,96.50
2022-09-22T16:40:34.604Z,96.50
2022-09-22T16:43:08.904Z,96.50
2022-09-22T16:46:00.129Z,96.70
2022-09-22T16:48:33.689Z,96.90
2022-09-22T16:51:05.815Z,96.70
2022-09-22T16:53:39.805Z,97.10
2022-09-22T16:56:11.681Z,97.40
2022-09-22T16:58:44.532Z,97.20
2022-09-22T17:01:19.783Z,97.20
2022-09-22T17:03:52.555Z,97.60
2022-09-22T17:06:25.793Z,97.90
2022-09-22T17:08:59.620Z,98.30
2022-09-22T17:11:35.001Z,98.50
2022-09-22T17:14:12.674Z,98.80
2022-09-22T17:16:56.526Z,98.60
2022-09-22T17:19:30.026Z,99.40
2022-09-22T17:22:01.918Z,99.50
2022-09-22T17:24:34.512Z,99.80
2022-09-22T17:29:39.121Z,99.90
2022-09-22T17:32:11.632Z,99.90
2022-09-22T17:37:16.428Z,99.90
2022-09-22T17:39:49.073Z,99.90
2022-09-22T17:42:21.857Z,99.90
2022-09-22T17:50:35.769Z,99.90
2022-09-22T17:53:27.742Z,99.90
2022-09-22T17:58:37.609Z,99.90
2022-09-22T18:01:09.803Z,99.90
2022-09-22T18:03:46.391Z,99.90
2022-09-22T18:06:19.305Z,99.90
2022-09-22T18:08:52.792Z,99.90
2022-09-22T18:11:27.610Z,99.90
2022-09-22T18:16:33.267Z,99.90
2022-09-22T18:19:07.044Z,99.90
2022-09-22T18:21:39.340Z,99.90
2022-09-22T18:24:18.952Z,99.90
2022-09-22T18:26:52.315Z,99.90
2022-09-22T18:31:59.478Z,99.90
2022-09-22T18:34:32.198Z,99.90
2022-09-22T18:37:05.136Z,99.90
2022-09-22T18:39:42.062Z,99.90
2022-09-22T18:42:14.182Z,99.90
2022-09-22T18:44:47.500Z,99.90
2022-09-22T18:47:21.407Z,99.90
2022-09-22T18:52:26.206Z,99.90
2022-09-22T18:54:59.214Z,99.90
2022-09-22T18:57:31.179Z,99.90
2022-09-22T19:00:05.113Z,99.90
2022-09-22T19:02:37.032Z,99.90
2022-09-22T19:05:09.844Z,99.90
2022-09-22T19:07:44.378Z,99.90
2022-09-22T19:10:23.361Z,99.90
2022-09-22T19:18:01.071Z,99.90
2022-09-22T19:20:33.446Z,99.90
2022-09-22T19:23:08.723Z,99.90
2022-09-22T19:25:42.644Z,99.90
2022-09-22T19:28:15.754Z,99.90
2022-09-22T19:30:47.620Z,99.90
2022-09-22T19:33:19.866Z,99.90
2022-09-22T19:35:51.702Z,99.90
2022-09-22T19:38:25.591Z,99.90
2022-09-22T19:40:59.489Z,99.90
2022-09-22T19:43:32.180Z,99.90
2022-09-22T19:46:04.249Z,99.90
2022-09-22T19:51:09.970Z,99.90
2022-09-22T19:53:42.605Z,99.90
2022-09-22T19:56:14.458Z,99.90
2022-09-22T19:58:51.265Z,99.90
2022-09-22T20:01:39.399Z,99.90
2022-09-22T20:04:20.249Z,99.90
2022-09-22T20:06:52.154Z,99.90
2022-09-22T20:11:56.838Z,99.90
2022-09-22T20:14:31.679Z,99.90
2022-09-22T20:17:08.331Z,99.90
2022-09-22T20:19:40.179Z,99.90
2022-09-22T20:22:28.454Z,99.90
2022-09-22T20:25:01.733Z,99.90
2022-09-22T20:27:35.948Z,99.90
2022-09-22T20:30:08.910Z,99.90
2022-09-22T20:32:42.109Z,99.90
2022-09-22T20:35:17.965Z,99.90
2022-09-22T20:37:51.859Z,99.90
2022-09-22T20:40:24.459Z,99.90
2022-09-22T20:42:57.084Z,99.90
2022-09-22T20:45:29.071Z,99.90
2022-09-22T20:48:01.795Z,99.90
2022-09-22T20:53:07.198Z,99.90
2022-09-22T20:55:39.389Z,99.90
2022-09-22T20:58:13.533Z,99.90
2022-09-22T21:00:48.766Z,99.90
2022-09-22T21:06:02.553Z,99.90
2022-09-22T21:09:00.463Z,99.90
2022-09-22T21:11:32.839Z,99.90
2022-09-22T21:16:40.043Z,99.90
2022-09-22T21:19:12.983Z,99.90
2022-09-22T21:21:45.151Z,99.90
2022-09-22T21:24:17.411Z,99.90
2022-09-22T21:26:49.913Z,99.90
2022-09-22T21:29:23.194Z,99.90
2022-09-22T21:31:56.209Z,99.90
2022-09-22T21:39:35.119Z,99.90
2022-09-22T21:42:07.390Z,99.90
2022-09-22T21:44:39.255Z,99.90
2022-09-22T21:47:11.891Z,99.90
2022-09-22T21:49:43.862Z,99.90
2022-09-22T21:52:17.691Z,99.90
2022-09-22T21:54:50.567Z,99.90
2022-09-22T21:57:23.600Z,99.90
2022-09-22T21:59:56.806Z,99.90
2022-09-22T22:02:49.466Z,99.90
2022-09-22T22:05:21.336Z,99.90
2022-09-22T22:07:55.739Z,99.90
2022-09-22T22:10:27.637Z,99.90
2022-09-22T22:13:01.010Z,99.90
2022-09-22T22:18:07.014Z,99.90
2022-09-22T22:20:39.294Z,99.90
2022-09-22T22:25:45.237Z,99.90
2022-09-22T22:30:50.956Z,99.90
2022-09-22T22:33:23.676Z,99.90
2022-09-22T22:35:56.706Z,99.90
2022-09-22T22:38:30.917Z,99.90
2022-09-22T22:41:07.291Z,99.90
2022-09-22T22:43:40.932Z,99.90
2022-09-22T22:46:16.529Z,99.90
2022-09-22T22:48:50.152Z,99.90
2022-09-22T22:51:22.605Z,99.90
2022-09-22T22:53:58.494Z,99.90
2022-09-22T22:56:31.024Z,99.90
2022-09-22T22:59:03.523Z,99.90
2022-09-22T23:01:36.099Z,99.90
2022-09-22T23:04:10.847Z,99.90
2022-09-22T23:06:47.715Z,99.90
2022-09-22T23:09:19.768Z,99.90
2022-09-22T23:11:54.533Z,99.90
2022-09-22T23:14:27.086Z,99.90
2022-09-22T23:16:59.409Z,99.90
2022-09-22T23:19:31.835Z,99.90
2022-09-22T23:22:04.509Z,99.90
2022-09-22T23:24:36.816Z,99.90
2022-09-22T23:27:09.103Z,99.90
2022-09-22T23:29:41.402Z,99.90
2022-09-22T23:34:47.873Z,99.90
2022-09-22T23:37:20.911Z,99.90
2022-09-22T23:39:53.082Z,99.90
2022-09-22T23:42:26.227Z,99.90
2022-09-22T23:47:33.177Z,99.90
2022-09-22T23:50:06.405Z,99.90
2022-09-22T23:55:11.177Z,99.90
2022-09-22T23:57:43.225Z,99.90
